sensor_id;sensor_type;location;lat;lon;timestamp;pressure;altitude;pressure_sealevel;temperature;humidity
68988;BME280;56038;46.080;11.116;2023-02-12T00:02:58;101044.97;;;2.22;46.71
68988;BME280;56038;46.080;11.116;2023-02-12T00:08:00;101048.00;;;2.45;45.68
68988;BME280;56038;46.080;11.116;2023-02-12T00:13:03;101047.63;;;2.68;44.68
68988;BME280;56038;46.080;11.116;2023-02-12T00:18:06;101062.50;;;2.83;44.25
68988;BME280;56038;46.080;11.116;2023-02-12T00:23:09;101061.72;;;2.87;44.32
68988;BME280;56038;46.080;11.116;2023-02-12T00:28:12;101055.78;;;2.93;44.27
68988;BME280;56038;46.080;11.116;2023-02-12T00:33:14;101046.28;;;2.90;44.52
68988;BME280;56038;46.080;11.116;2023-02-12T00:38:16;101047.13;;;2.89;44.31
68988;BME280;56038;46.080;11.116;2023-02-12T00:43:20;101045.34;;;2.85;44.17
68988;BME280;56038;46.080;11.116;2023-02-12T00:48:21;101042.84;;;2.90;44.37
68988;BME280;56038;46.080;11.116;2023-02-12T00:53:23;101040.31;;;2.94;43.87
68988;BME280;56038;46.080;11.116;2023-02-12T00:58:26;101034.31;;;2.94;44.07
68988;BME280;56038;46.080;11.116;2023-02-12T01:03:28;101049.69;;;2.88;44.27
68988;BME280;56038;46.080;11.116;2023-02-12T01:08:30;101035.81;;;2.83;44.82
68988;BME280;56038;46.080;11.116;2023-02-12T01:13:36;101046.81;;;2.71;45.38
68988;BME280;56038;46.080;11.116;2023-02-12T01:18:38;101045.91;;;2.69;45.15
68988;BME280;56038;46.080;11.116;2023-02-12T01:23:41;101044.28;;;2.74;45.04
68988;BME280;56038;46.080;11.116;2023-02-12T01:28:50;101035.66;;;2.74;45.37
68988;BME280;56038;46.080;11.116;2023-02-12T01:33:54;101041.66;;;2.71;45.42
68988;BME280;56038;46.080;11.116;2023-02-12T01:39:03;101041.41;;;2.59;46.04
68988;BME280;56038;46.080;11.116;2023-02-12T01:44:11;101022.47;;;2.58;45.84
68988;BME280;56038;46.080;11.116;2023-02-12T01:49:17;101009.59;;;2.58;45.67
68988;BME280;56038;46.080;11.116;2023-02-12T01:54:21;101017.31;;;2.57;45.77
68988;BME280;56038;46.080;11.116;2023-02-12T01:59:26;101018.91;;;2.52;46.05
68988;BME280;56038;46.080;11.116;2023-02-12T02:04:31;101021.56;;;2.55;45.99
68988;BME280;56038;46.080;11.116;2023-02-12T02:09:35;101020.03;;;2.66;45.38
68988;BME280;56038;46.080;11.116;2023-02-12T02:14:40;101017.28;;;2.55;46.25
68988;BME280;56038;46.080;11.116;2023-02-12T02:20:01;101012.19;;;2.60;46.69
68988;BME280;56038;46.080;11.116;2023-02-12T02:25:23;101002.09;;;2.72;46.01
68988;BME280;56038;46.080;11.116;2023-02-12T02:30:37;100995.31;;;2.77;45.88
68988;BME280;56038;46.080;11.116;2023-02-12T02:35:50;100988.34;;;2.73;45.99
68988;BME280;56038;46.080;11.116;2023-02-12T02:41:00;100986.47;;;2.64;46.10
68988;BME280;56038;46.080;11.116;2023-02-12T02:46:08;100994.22;;;2.64;46.43
68988;BME280;56038;46.080;11.116;2023-02-12T02:51:14;100994.97;;;2.59;46.63
68988;BME280;56038;46.080;11.116;2023-02-12T02:56:21;100983.88;;;2.63;46.13
68988;BME280;56038;46.080;11.116;2023-02-12T03:01:28;100976.97;;;2.62;46.48
68988;BME280;56038;46.080;11.116;2023-02-12T03:06:35;100980.50;;;2.67;46.15
68988;BME280;56038;46.080;11.116;2023-02-12T03:11:39;100994.31;;;2.69;46.37
68988;BME280;56038;46.080;11.116;2023-02-12T03:16:48;100985.59;;;2.64;46.66
68988;BME280;56038;46.080;11.116;2023-02-12T03:21:56;100980.22;;;2.52;47.61
68988;BME280;56038;46.080;11.116;2023-02-12T03:27:02;100984.31;;;2.40;47.93
68988;BME280;56038;46.080;11.116;2023-02-12T03:32:17;100982.63;;;2.43;47.39
68988;BME280;56038;46.080;11.116;2023-02-12T03:37:26;100975.47;;;2.26;48.04
68988;BME280;56038;46.080;11.116;2023-02-12T03:42:34;100991.81;;;2.28;48.20
68988;BME280;56038;46.080;11.116;2023-02-12T03:47:45;100984.03;;;2.25;47.92
68988;BME280;56038;46.080;11.116;2023-02-12T03:52:49;100987.09;;;2.06;49.27
68988;BME280;56038;46.080;11.116;2023-02-12T03:57:54;100986.03;;;1.96;48.86
68988;BME280;56038;46.080;11.116;2023-02-12T04:03:01;100981.84;;;2.03;48.96
68988;BME280;56038;46.080;11.116;2023-02-12T04:08:08;100974.78;;;1.93;49.20
68988;BME280;56038;46.080;11.116;2023-02-12T04:13:18;100972.16;;;1.90;50.92
68988;BME280;56038;46.080;11.116;2023-02-12T04:18:26;100975.66;;;1.93;49.46
68988;BME280;56038;46.080;11.116;2023-02-12T04:23:43;100965.38;;;1.95;49.51
68988;BME280;56038;46.080;11.116;2023-02-12T04:28:54;100968.97;;;2.03;49.15
68988;BME280;56038;46.080;11.116;2023-02-12T04:34:06;100959.63;;;2.08;49.15
68988;BME280;56038;46.080;11.116;2023-02-12T04:39:14;100957.81;;;2.04;49.11
68988;BME280;56038;46.080;11.116;2023-02-12T04:44:21;100949.09;;;1.96;49.48
68988;BME280;56038;46.080;11.116;2023-02-12T04:49:26;100954.94;;;1.89;49.54
68988;BME280;56038;46.080;11.116;2023-02-12T04:54:28;100960.00;;;1.84;49.72
68988;BME280;56038;46.080;11.116;2023-02-12T04:59:29;100963.44;;;1.85;49.98
68988;BME280;56038;46.080;11.116;2023-02-12T05:04:32;100959.19;;;1.87;49.92
68988;BME280;56038;46.080;11.116;2023-02-12T05:09:34;100975.41;;;1.81;50.42
68988;BME280;56038;46.080;11.116;2023-02-12T05:14:36;100979.72;;;1.82;50.29
68988;BME280;56038;46.080;11.116;2023-02-12T05:19:39;100973.81;;;1.88;50.82
68988;BME280;56038;46.080;11.116;2023-02-12T05:24:41;100985.41;;;1.67;51.90
68988;BME280;56038;46.080;11.116;2023-02-12T05:29:43;100995.19;;;1.43;52.67
68988;BME280;56038;46.080;11.116;2023-02-12T05:34:46;100995.34;;;1.50;52.18
68988;BME280;56038;46.080;11.116;2023-02-12T05:39:48;101002.56;;;1.67;51.54
68988;BME280;56038;46.080;11.116;2023-02-12T05:44:50;101001.81;;;1.72;51.32
68988;BME280;56038;46.080;11.116;2023-02-12T05:49:53;101006.00;;;1.67;51.65
68988;BME280;56038;46.080;11.116;2023-02-12T05:54:55;101002.66;;;1.71;51.60
68988;BME280;56038;46.080;11.116;2023-02-12T05:59:57;101002.34;;;1.58;53.38
68988;BME280;56038;46.080;11.116;2023-02-12T06:05:00;100999.69;;;1.53;52.99
68988;BME280;56038;46.080;11.116;2023-02-12T06:10:02;100992.13;;;1.61;54.13
68988;BME280;56038;46.080;11.116;2023-02-12T06:15:05;100988.94;;;1.72;52.43
68988;BME280;56038;46.080;11.116;2023-02-12T06:20:08;100995.59;;;1.61;56.40
68988;BME280;56038;46.080;11.116;2023-02-12T06:25:10;101005.16;;;1.68;54.05
68988;BME280;56038;46.080;11.116;2023-02-12T06:30:13;100989.19;;;1.83;52.46
68988;BME280;56038;46.080;11.116;2023-02-12T06:35:16;100995.44;;;1.94;52.20
68988;BME280;56038;46.080;11.116;2023-02-12T06:40:18;100997.16;;;1.95;51.92
68988;BME280;56038;46.080;11.116;2023-02-12T06:45:20;100998.84;;;1.93;52.69
68988;BME280;56038;46.080;11.116;2023-02-12T06:50:23;101005.66;;;1.90;52.62
68988;BME280;56038;46.080;11.116;2023-02-12T06:55:26;101020.38;;;1.95;53.04
68988;BME280;56038;46.080;11.116;2023-02-12T07:00:27;101028.19;;;2.00;52.69
68988;BME280;56038;46.080;11.116;2023-02-12T07:05:33;101039.38;;;2.02;53.22
68988;BME280;56038;46.080;11.116;2023-02-12T07:10:37;101043.78;;;2.06;52.38
68988;BME280;56038;46.080;11.116;2023-02-12T07:15:38;101049.16;;;2.17;52.19
68988;BME280;56038;46.080;11.116;2023-02-12T07:20:42;101041.63;;;2.26;52.52
68988;BME280;56038;46.080;11.116;2023-02-12T07:25:53;101043.44;;;2.31;53.41
68988;BME280;56038;46.080;11.116;2023-02-12T07:30:55;101057.44;;;2.43;52.30
68988;BME280;56038;46.080;11.116;2023-02-12T07:36:00;101060.97;;;2.49;52.34
68988;BME280;56038;46.080;11.116;2023-02-12T07:41:07;101063.00;;;2.64;52.12
68988;BME280;56038;46.080;11.116;2023-02-12T07:46:10;101054.75;;;2.83;51.21
68988;BME280;56038;46.080;11.116;2023-02-12T07:51:15;101049.91;;;3.00;51.53
68988;BME280;56038;46.080;11.116;2023-02-12T07:56:19;101051.22;;;3.28;51.00
68988;BME280;56038;46.080;11.116;2023-02-12T08:01:22;101061.16;;;3.56;50.26
68988;BME280;56038;46.080;11.116;2023-02-12T08:06:28;101051.22;;;3.84;49.77
68988;BME280;56038;46.080;11.116;2023-02-12T08:11:31;101057.66;;;4.12;49.11
68988;BME280;56038;46.080;11.116;2023-02-12T08:16:35;101063.13;;;4.38;48.81
68988;BME280;56038;46.080;11.116;2023-02-12T08:21:38;101054.81;;;4.63;48.07
68988;BME280;56038;46.080;11.116;2023-02-12T08:26:40;101053.31;;;4.85;48.15
68988;BME280;56038;46.080;11.116;2023-02-12T08:31:44;101060.44;;;5.06;47.56
68988;BME280;56038;46.080;11.116;2023-02-12T08:36:48;101060.63;;;5.30;47.25
68988;BME280;56038;46.080;11.116;2023-02-12T08:41:52;101053.97;;;5.58;47.09
68988;BME280;56038;46.080;11.116;2023-02-12T08:46:54;101052.41;;;5.85;46.17
68988;BME280;56038;46.080;11.116;2023-02-12T08:52:01;101055.19;;;6.15;46.07
68988;BME280;56038;46.080;11.116;2023-02-12T08:57:03;101038.91;;;6.62;44.85
68988;BME280;56038;46.080;11.116;2023-02-12T09:02:05;101045.09;;;7.16;44.51
68988;BME280;56038;46.080;11.116;2023-02-12T09:07:09;101045.06;;;7.62;42.90
68988;BME280;56038;46.080;11.116;2023-02-12T09:12:11;101032.75;;;8.26;41.76
68988;BME280;56038;46.080;11.116;2023-02-12T09:17:12;101023.81;;;8.85;40.68
68988;BME280;56038;46.080;11.116;2023-02-12T09:22:15;101030.56;;;10.03;38.78
68988;BME280;56038;46.080;11.116;2023-02-12T09:27:17;101027.09;;;10.71;36.62
68988;BME280;56038;46.080;11.116;2023-02-12T09:32:19;101017.94;;;11.01;36.57
68988;BME280;56038;46.080;11.116;2023-02-12T09:37:22;101016.78;;;11.21;36.03
68988;BME280;56038;46.080;11.116;2023-02-12T09:42:31;101012.91;;;11.91;35.18
68988;BME280;56038;46.080;11.116;2023-02-12T09:47:43;101006.47;;;12.09;34.89
68988;BME280;56038;46.080;11.116;2023-02-12T09:52:48;101008.72;;;12.67;34.08
68988;BME280;56038;46.080;11.116;2023-02-12T09:57:50;101003.84;;;13.25;33.23
68988;BME280;56038;46.080;11.116;2023-02-12T10:02:52;101008.25;;;13.91;32.17
68988;BME280;56038;46.080;11.116;2023-02-12T10:08:12;100991.75;;;14.76;29.42
68988;BME280;56038;46.080;11.116;2023-02-12T10:13:26;101001.25;;;15.34;29.62
68988;BME280;56038;46.080;11.116;2023-02-12T10:18:50;100991.06;;;15.75;28.42
68988;BME280;56038;46.080;11.116;2023-02-12T10:24:07;100982.25;;;16.69;26.64
68988;BME280;56038;46.080;11.116;2023-02-12T10:29:16;100974.69;;;17.46;26.79
68988;BME280;56038;46.080;11.116;2023-02-12T10:34:20;100960.13;;;17.97;26.96
68988;BME280;56038;46.080;11.116;2023-02-12T10:39:26;100955.84;;;18.13;25.97
68988;BME280;56038;46.080;11.116;2023-02-12T10:44:30;100948.06;;;17.51;27.00
68988;BME280;56038;46.080;11.116;2023-02-12T10:49:32;100939.22;;;17.72;27.41
68988;BME280;56038;46.080;11.116;2023-02-12T10:54:40;100925.41;;;17.25;25.93
68988;BME280;56038;46.080;11.116;2023-02-12T10:59:43;100916.22;;;17.13;27.29
68988;BME280;56038;46.080;11.116;2023-02-12T11:04:45;100912.91;;;18.08;26.63
68988;BME280;56038;46.080;11.116;2023-02-12T11:09:50;100902.41;;;18.98;25.18
68988;BME280;56038;46.080;11.116;2023-02-12T11:14:53;100889.94;;;18.46;26.10
68988;BME280;56038;46.080;11.116;2023-02-12T11:20:06;100867.81;;;18.83;24.22
68988;BME280;56038;46.080;11.116;2023-02-12T11:25:14;100869.50;;;19.69;24.07
68988;BME280;56038;46.080;11.116;2023-02-12T11:30:18;100869.22;;;20.07;24.14
68988;BME280;56038;46.080;11.116;2023-02-12T11:35:23;100862.94;;;20.71;23.36
68988;BME280;56038;46.080;11.116;2023-02-12T11:40:29;100850.84;;;20.66;22.84
68988;BME280;56038;46.080;11.116;2023-02-12T11:45:34;100833.63;;;20.43;23.82
68988;BME280;56038;46.080;11.116;2023-02-12T11:50:37;100834.75;;;21.13;22.22
68988;BME280;56038;46.080;11.116;2023-02-12T11:55:40;100822.78;;;21.91;21.80
68988;BME280;56038;46.080;11.116;2023-02-12T12:00:45;100816.03;;;22.41;20.50
68988;BME280;56038;46.080;11.116;2023-02-12T12:05:53;100799.75;;;22.19;20.94
68988;BME280;56038;46.080;11.116;2023-02-12T12:11:02;100792.72;;;23.22;19.26
68988;BME280;56038;46.080;11.116;2023-02-12T12:16:10;100780.53;;;23.31;19.39
68988;BME280;56038;46.080;11.116;2023-02-12T12:21:35;100772.59;;;22.53;19.99
68988;BME280;56038;46.080;11.116;2023-02-12T12:26:41;100781.38;;;23.94;18.60
68988;BME280;56038;46.080;11.116;2023-02-12T12:31:48;100767.16;;;24.76;18.75
68988;BME280;56038;46.080;11.116;2023-02-12T12:37:01;100757.56;;;24.73;17.50
68988;BME280;56038;46.080;11.116;2023-02-12T12:47:44;100753.97;;;24.15;18.79
68988;BME280;56038;46.080;11.116;2023-02-12T12:53:03;100750.88;;;24.09;18.38
68988;BME280;56038;46.080;11.116;2023-02-12T12:58:18;100737.53;;;23.61;18.51
68988;BME280;56038;46.080;11.116;2023-02-12T13:03:56;100741.19;;;23.84;17.51
68988;BME280;56038;46.080;11.116;2023-02-12T13:09:14;100741.72;;;22.63;18.71
68988;BME280;56038;46.080;11.116;2023-02-12T13:14:35;100731.19;;;22.22;19.06
68988;BME280;56038;46.080;11.116;2023-02-12T13:19:47;100737.56;;;21.09;20.36
68988;BME280;56038;46.080;11.116;2023-02-12T13:24:56;100735.06;;;20.63;21.38
68988;BME280;56038;46.080;11.116;2023-02-12T13:30:04;100727.53;;;19.48;22.69
68988;BME280;56038;46.080;11.116;2023-02-12T13:35:06;100732.59;;;19.04;23.30
68988;BME280;56038;46.080;11.116;2023-02-12T13:40:14;100747.09;;;19.30;22.55
68988;BME280;56038;46.080;11.116;2023-02-12T13:45:33;100741.56;;;19.66;23.69
68988;BME280;56038;46.080;11.116;2023-02-12T13:50:40;100738.63;;;18.38;25.89
68988;BME280;56038;46.080;11.116;2023-02-12T13:55:57;100741.91;;;17.15;27.76
68988;BME280;56038;46.080;11.116;2023-02-12T14:01:04;100751.09;;;16.45;28.91
68988;BME280;56038;46.080;11.116;2023-02-12T14:06:10;100759.00;;;16.03;28.93
68988;BME280;56038;46.080;11.116;2023-02-12T14:11:14;100757.75;;;15.68;29.20
68988;BME280;56038;46.080;11.116;2023-02-12T14:16:34;100751.13;;;15.34;29.59
68988;BME280;56038;46.080;11.116;2023-02-12T14:21:37;100755.06;;;14.99;29.51
68988;BME280;56038;46.080;11.116;2023-02-12T14:26:39;100766.06;;;14.60;29.49
68988;BME280;56038;46.080;11.116;2023-02-12T14:31:42;100772.88;;;14.39;29.61
68988;BME280;56038;46.080;11.116;2023-02-12T14:36:45;100768.72;;;14.06;29.80
68988;BME280;56038;46.080;11.116;2023-02-12T14:41:49;100772.66;;;13.93;29.72
68988;BME280;56038;46.080;11.116;2023-02-12T14:46:53;100776.94;;;13.67;29.86
68988;BME280;56038;46.080;11.116;2023-02-12T14:51:58;100793.59;;;13.37;30.40
68988;BME280;56038;46.080;11.116;2023-02-12T14:57:04;100786.34;;;13.14;30.67
68988;BME280;56038;46.080;11.116;2023-02-12T15:02:21;100800.47;;;12.76;31.54
68988;BME280;56038;46.080;11.116;2023-02-12T15:07:29;100794.28;;;12.44;32.07
68988;BME280;56038;46.080;11.116;2023-02-12T15:12:36;100820.44;;;12.10;32.67
68988;BME280;56038;46.080;11.116;2023-02-12T15:17:50;100826.91;;;11.95;33.11
68988;BME280;56038;46.080;11.116;2023-02-12T15:22:53;100821.09;;;11.81;32.84
68988;BME280;56038;46.080;11.116;2023-02-12T15:27:56;100843.06;;;11.74;32.86
68988;BME280;56038;46.080;11.116;2023-02-12T15:33:03;100846.63;;;11.70;32.88
68988;BME280;56038;46.080;11.116;2023-02-12T15:38:06;100846.72;;;11.65;32.78
68988;BME280;56038;46.080;11.116;2023-02-12T15:43:16;100854.75;;;11.58;34.09
68988;BME280;56038;46.080;11.116;2023-02-12T15:48:21;100854.22;;;11.40;34.40
68988;BME280;56038;46.080;11.116;2023-02-12T15:53:25;100869.44;;;11.19;34.76
68988;BME280;56038;46.080;11.116;2023-02-12T15:58:32;100879.28;;;11.06;34.37
68988;BME280;56038;46.080;11.116;2023-02-12T16:03:40;100873.34;;;10.96;34.21
68988;BME280;56038;46.080;11.116;2023-02-12T16:08:43;100890.91;;;10.88;34.12
68988;BME280;56038;46.080;11.116;2023-02-12T16:13:47;100897.19;;;10.78;34.14
68988;BME280;56038;46.080;11.116;2023-02-12T16:19:06;100896.41;;;10.71;34.33
68988;BME280;56038;46.080;11.116;2023-02-12T16:24:21;100901.88;;;10.59;34.66
68988;BME280;56038;46.080;11.116;2023-02-12T16:29:25;100923.84;;;10.46;34.58
68988;BME280;56038;46.080;11.116;2023-02-12T16:34:31;100918.69;;;10.40;34.59
68988;BME280;56038;46.080;11.116;2023-02-12T16:40:09;100935.25;;;10.37;34.86
68988;BME280;56038;46.080;11.116;2023-02-12T16:45:37;100943.28;;;10.20;35.06
68988;BME280;56038;46.080;11.116;2023-02-12T16:50:46;100961.75;;;10.10;35.57
68988;BME280;56038;46.080;11.116;2023-02-12T16:55:48;100959.28;;;9.96;35.78
68988;BME280;56038;46.080;11.116;2023-02-12T17:00:51;100982.88;;;9.87;35.92
68988;BME280;56038;46.080;11.116;2023-02-12T17:05:54;100991.69;;;9.80;36.15
68988;BME280;56038;46.080;11.116;2023-02-12T17:10:56;100996.13;;;9.70;36.79
68988;BME280;56038;46.080;11.116;2023-02-12T17:15:59;101011.72;;;9.75;36.16
68988;BME280;56038;46.080;11.116;2023-02-12T17:21:05;101022.19;;;9.72;35.74
68988;BME280;56038;46.080;11.116;2023-02-12T17:26:07;101030.94;;;9.68;36.38
68988;BME280;56038;46.080;11.116;2023-02-12T17:31:11;101045.75;;;9.64;36.81
68988;BME280;56038;46.080;11.116;2023-02-12T17:36:14;101052.72;;;9.62;37.38
68988;BME280;56038;46.080;11.116;2023-02-12T17:41:16;101057.06;;;9.61;37.15
68988;BME280;56038;46.080;11.116;2023-02-12T17:46:20;101063.19;;;9.57;36.86
68988;BME280;56038;46.080;11.116;2023-02-12T17:51:24;101077.09;;;9.59;36.79
68988;BME280;56038;46.080;11.116;2023-02-12T17:56:25;101081.50;;;9.54;36.81
68988;BME280;56038;46.080;11.116;2023-02-12T18:01:27;101094.59;;;9.45;36.93
68988;BME280;56038;46.080;11.116;2023-02-12T18:06:30;101100.72;;;9.43;37.57
68988;BME280;56038;46.080;11.116;2023-02-12T18:11:32;101114.72;;;9.33;37.45
68988;BME280;56038;46.080;11.116;2023-02-12T18:16:34;101120.84;;;9.22;38.18
68988;BME280;56038;46.080;11.116;2023-02-12T18:21:37;101119.16;;;9.17;38.55
68988;BME280;56038;46.080;11.116;2023-02-12T18:26:39;101115.72;;;9.10;38.95
68988;BME280;56038;46.080;11.116;2023-02-12T18:31:41;101121.81;;;9.09;38.47
68988;BME280;56038;46.080;11.116;2023-02-12T18:36:44;101124.44;;;9.05;38.13
68988;BME280;56038;46.080;11.116;2023-02-12T18:41:46;101129.69;;;8.95;38.52
68988;BME280;56038;46.080;11.116;2023-02-12T18:46:48;101137.56;;;8.83;38.58
68988;BME280;56038;46.080;11.116;2023-02-12T18:51:51;101142.88;;;8.65;39.07
68988;BME280;56038;46.080;11.116;2023-02-12T18:56:53;101136.00;;;8.46;40.23
68988;BME280;56038;46.080;11.116;2023-02-12T19:01:54;101147.28;;;8.32;40.32
68988;BME280;56038;46.080;11.116;2023-02-12T19:06:58;101149.03;;;8.18;41.69
68988;BME280;56038;46.080;11.116;2023-02-12T19:11:59;101159.47;;;8.09;41.29
68988;BME280;56038;46.080;11.116;2023-02-12T19:17:01;101162.97;;;7.94;42.49
68988;BME280;56038;46.080;11.116;2023-02-12T19:22:06;101162.09;;;7.92;41.26
68988;BME280;56038;46.080;11.116;2023-02-12T19:27:07;101172.50;;;7.77;42.38
68988;BME280;56038;46.080;11.116;2023-02-12T19:32:09;101175.97;;;7.67;44.23
68988;BME280;56038;46.080;11.116;2023-02-12T19:37:12;101182.00;;;7.50;43.45
68988;BME280;56038;46.080;11.116;2023-02-12T19:42:14;101184.59;;;7.38;43.27
68988;BME280;56038;46.080;11.116;2023-02-12T19:47:17;101204.50;;;7.41;43.46
68988;BME280;56038;46.080;11.116;2023-02-12T19:52:20;101207.13;;;7.29;46.11
68988;BME280;56038;46.080;11.116;2023-02-12T19:57:21;101211.28;;;6.88;46.02
68988;BME280;56038;46.080;11.116;2023-02-12T20:02:24;101216.47;;;6.88;44.77
68988;BME280;56038;46.080;11.116;2023-02-12T20:07:27;101224.25;;;6.84;45.38
68988;BME280;56038;46.080;11.116;2023-02-12T20:12:29;101225.94;;;6.76;45.64
68988;BME280;56038;46.080;11.116;2023-02-12T20:17:31;101229.38;;;6.70;47.20
68988;BME280;56038;46.080;11.116;2023-02-12T20:22:35;101231.97;;;6.66;46.56
68988;BME280;56038;46.080;11.116;2023-02-12T20:27:38;101232.75;;;6.55;45.86
68988;BME280;56038;46.080;11.116;2023-02-12T20:32:39;101242.28;;;6.55;46.11
68988;BME280;56038;46.080;11.116;2023-02-12T20:37:45;101248.34;;;6.61;45.41
68988;BME280;56038;46.080;11.116;2023-02-12T20:42:51;101261.38;;;6.63;45.31
68988;BME280;56038;46.080;11.116;2023-02-12T20:48:15;101250.03;;;6.50;47.52
68988;BME280;56038;46.080;11.116;2023-02-12T20:59:18;101269.00;;;6.45;46.13
68988;BME280;56038;46.080;11.116;2023-02-12T21:04:28;101276.75;;;6.36;47.37
68988;BME280;56038;46.080;11.116;2023-02-12T21:09:34;101268.97;;;6.34;46.48
68988;BME280;56038;46.080;11.116;2023-02-12T21:14:49;101269.75;;;6.25;47.08
68988;BME280;56038;46.080;11.116;2023-02-12T21:19:53;101267.09;;;6.16;46.46
68988;BME280;56038;46.080;11.116;2023-02-12T21:24:58;101277.41;;;6.12;47.14
68988;BME280;56038;46.080;11.116;2023-02-12T21:30:00;101273.94;;;6.11;45.98
68988;BME280;56038;46.080;11.116;2023-02-12T21:35:03;101282.63;;;6.15;46.08
68988;BME280;56038;46.080;11.116;2023-02-12T21:40:08;101290.25;;;5.98;47.07
68988;BME280;56038;46.080;11.116;2023-02-12T21:45:10;101300.63;;;5.96;46.26
68988;BME280;56038;46.080;11.116;2023-02-12T21:50:11;101295.44;;;5.96;46.63
68988;BME280;56038;46.080;11.116;2023-02-12T21:55:15;101303.91;;;5.83;47.40
68988;BME280;56038;46.080;11.116;2023-02-12T22:00:17;101308.16;;;5.75;47.33
68988;BME280;56038;46.080;11.116;2023-02-12T22:05:20;101305.47;;;5.67;47.03
68988;BME280;56038;46.080;11.116;2023-02-12T22:10:23;101323.56;;;5.63;47.21
68988;BME280;56038;46.080;11.116;2023-02-12T22:15:25;101327.88;;;5.62;46.98
68988;BME280;56038;46.080;11.116;2023-02-12T22:20:27;101326.75;;;5.37;48.60
68988;BME280;56038;46.080;11.116;2023-02-12T22:25:31;101333.50;;;5.26;48.90
68988;BME280;56038;46.080;11.116;2023-02-12T22:30:33;101345.47;;;5.18;48.71
68988;BME280;56038;46.080;11.116;2023-02-12T22:35:35;101335.97;;;5.17;48.43
68988;BME280;56038;46.080;11.116;2023-02-12T22:40:38;101356.56;;;5.08;48.53
68988;BME280;56038;46.080;11.116;2023-02-12T22:45:42;101359.81;;;4.93;50.12
68988;BME280;56038;46.080;11.116;2023-02-12T22:50:44;101367.56;;;4.92;49.51
68988;BME280;56038;46.080;11.116;2023-02-12T22:55:47;101375.41;;;4.98;49.91
68988;BME280;56038;46.080;11.116;2023-02-12T23:00:49;101380.28;;;4.76;50.70
68988;BME280;56038;46.080;11.116;2023-02-12T23:05:50;101387.91;;;4.70;50.95
68988;BME280;56038;46.080;11.116;2023-02-12T23:10:53;101387.88;;;4.67;51.12
68988;BME280;56038;46.080;11.116;2023-02-12T23:15:56;101399.88;;;4.62;51.21
68988;BME280;56038;46.080;11.116;2023-02-12T23:20:58;101404.91;;;4.53;51.44
68988;BME280;56038;46.080;11.116;2023-02-12T23:26:02;101408.28;;;4.49;51.32
68988;BME280;56038;46.080;11.116;2023-02-12T23:31:03;101408.28;;;4.49;51.54
68988;BME280;56038;46.080;11.116;2023-02-12T23:36:06;101402.28;;;4.51;50.71
68988;BME280;56038;46.080;11.116;2023-02-12T23:41:09;101414.25;;;4.45;51.00
68988;BME280;56038;46.080;11.116;2023-02-12T23:46:11;101415.03;;;4.41;50.85
68988;BME280;56038;46.080;11.116;2023-02-12T23:51:13;101419.06;;;4.25;51.20
68988;BME280;56038;46.080;11.116;2023-02-12T23:56:16;101419.59;;;4.07;52.57
